sensor_id;sensor_type;location;lat;lon;timestamp;pressure;altitude;pressure_sealevel;temperature;humidity
76352;BME280;65179;47.786;19.138;2023-01-16T00:00:56;99718.63;;;4.60;94.61
76352;BME280;65179;47.786;19.138;2023-01-16T00:03:22;99716.59;;;4.62;94.52
76352;BME280;65179;47.786;19.138;2023-01-16T00:05:48;99704.78;;;4.63;94.50
76352;BME280;65179;47.786;19.138;2023-01-16T00:08:13;99697.75;;;4.62;94.53
76352;BME280;65179;47.786;19.138;2023-01-16T00:10:39;99697.13;;;4.60;94.71
76352;BME280;65179;47.786;19.138;2023-01-16T00:13:05;99697.75;;;4.62;94.71
76352;BME280;65179;47.786;19.138;2023-01-16T00:15:31;99699.59;;;4.62;94.54
76352;BME280;65179;47.786;19.138;2023-01-16T00:17:56;99707.88;;;4.60;94.66
76352;BME280;65179;47.786;19.138;2023-01-16T00:20:22;99702.50;;;4.60;94.74
76352;BME280;65179;47.786;19.138;2023-01-16T00:22:48;99692.75;;;4.59;94.67
76352;BME280;65179;47.786;19.138;2023-01-16T00:25:13;99709.94;;;4.58;94.64
76352;BME280;65179;47.786;19.138;2023-01-16T00:27:39;99716.12;;;4.52;94.94
76352;BME280;65179;47.786;19.138;2023-01-16T00:30:05;99717.97;;;4.52;95.10
76352;BME280;65179;47.786;19.138;2023-01-16T00:32:31;99729.34;;;4.54;94.81
76352;BME280;65179;47.786;19.138;2023-01-16T00:34:56;99718.81;;;4.52;94.68
76352;BME280;65179;47.786;19.138;2023-01-16T00:37:22;99714.44;;;4.51;94.69
76352;BME280;65179;47.786;19.138;2023-01-16T00:39:47;99703.91;;;4.50;94.68
76352;BME280;65179;47.786;19.138;2023-01-16T00:42:13;99700.38;;;4.49;94.75
76352;BME280;65179;47.786;19.138;2023-01-16T00:44:39;99684.25;;;4.49;94.84
76352;BME280;65179;47.786;19.138;2023-01-16T00:47:04;99699.53;;;4.49;94.89
76352;BME280;65179;47.786;19.138;2023-01-16T00:49:30;99698.06;;;4.46;94.86
76352;BME280;65179;47.786;19.138;2023-01-16T00:51:55;99700.53;;;4.41;95.02
76352;BME280;65179;47.786;19.138;2023-01-16T00:54:21;99691.44;;;4.42;94.91
76352;BME280;65179;47.786;19.138;2023-01-16T00:56:46;99690.41;;;4.43;94.77
76352;BME280;65179;47.786;19.138;2023-01-16T00:59:12;99697.22;;;4.39;94.72
76352;BME280;65179;47.786;19.138;2023-01-16T01:01:38;99704.44;;;4.39;94.70
76352;BME280;65179;47.786;19.138;2023-01-16T01:04:03;99708.16;;;4.38;94.75
76352;BME280;65179;47.786;19.138;2023-01-16T01:06:29;99718.91;;;4.38;94.72
76352;BME280;65179;47.786;19.138;2023-01-16T01:08:54;99720.56;;;4.39;94.68
76352;BME280;65179;47.786;19.138;2023-01-16T01:11:20;99700.91;;;4.38;94.68
76352;BME280;65179;47.786;19.138;2023-01-16T01:13:46;99701.13;;;4.37;94.59
76352;BME280;65179;47.786;19.138;2023-01-16T01:16:11;99711.03;;;4.36;94.75
76352;BME280;65179;47.786;19.138;2023-01-16T01:18:37;99709.78;;;4.32;94.89
76352;BME280;65179;47.786;19.138;2023-01-16T01:21:03;99706.03;;;4.33;94.75
76352;BME280;65179;47.786;19.138;2023-01-16T01:23:28;99712.06;;;4.35;94.66
76352;BME280;65179;47.786;19.138;2023-01-16T01:25:54;99706.88;;;4.34;94.65
76352;BME280;65179;47.786;19.138;2023-01-16T01:28:19;99696.34;;;4.32;94.74
76352;BME280;65179;47.786;19.138;2023-01-16T01:30:45;99696.34;;;4.32;94.86
76352;BME280;65179;47.786;19.138;2023-01-16T01:33:11;99694.28;;;4.34;94.79
76352;BME280;65179;47.786;19.138;2023-01-16T01:35:37;99693.25;;;4.35;94.66
76352;BME280;65179;47.786;19.138;2023-01-16T01:38:02;99683.53;;;4.34;94.66
76352;BME280;65179;47.786;19.138;2023-01-16T01:40:28;99680.84;;;4.34;94.64
76352;BME280;65179;47.786;19.138;2023-01-16T01:42:53;99680.22;;;4.32;94.59
76352;BME280;65179;47.786;19.138;2023-01-16T01:45:24;99677.91;;;4.29;94.78
76352;BME280;65179;47.786;19.138;2023-01-16T01:53:09;99670.03;;;4.28;94.56
76352;BME280;65179;47.786;19.138;2023-01-16T01:55:38;99674.59;;;4.27;94.71
76352;BME280;65179;47.786;19.138;2023-01-16T01:58:04;99665.50;;;4.28;94.75
76352;BME280;65179;47.786;19.138;2023-01-16T02:00:30;99649.38;;;4.28;94.67
76352;BME280;65179;47.786;19.138;2023-01-16T02:03:12;99636.97;;;4.27;94.76
76352;BME280;65179;47.786;19.138;2023-01-16T02:05:46;99640.06;;;4.24;94.86
76352;BME280;65179;47.786;19.138;2023-01-16T02:08:15;99636.91;;;4.21;94.90
76352;BME280;65179;47.786;19.138;2023-01-16T02:10:56;99642.28;;;4.21;94.90
76352;BME280;65179;47.786;19.138;2023-01-16T02:13:23;99633.81;;;4.17;94.96
76352;BME280;65179;47.786;19.138;2023-01-16T02:15:49;99647.62;;;4.14;95.01
76352;BME280;65179;47.786;19.138;2023-01-16T02:18:33;99652.63;;;4.17;95.08
76352;BME280;65179;47.786;19.138;2023-01-16T02:24:46;99655.09;;;4.19;94.78
76352;BME280;65179;47.786;19.138;2023-01-16T02:38:59;99628.44;;;4.17;95.03
76352;BME280;65179;47.786;19.138;2023-01-16T02:41:43;99622.00;;;4.18;94.76
76352;BME280;65179;47.786;19.138;2023-01-16T02:46:55;99622.84;;;4.19;94.80
76352;BME280;65179;47.786;19.138;2023-01-16T02:49:28;99620.59;;;4.16;94.77
76352;BME280;65179;47.786;19.138;2023-01-16T02:52:05;99619.53;;;4.17;94.81
76352;BME280;65179;47.786;19.138;2023-01-16T02:54:46;99615.22;;;4.16;94.89
76352;BME280;65179;47.786;19.138;2023-01-16T02:57:19;99611.47;;;4.17;94.86
76352;BME280;65179;47.786;19.138;2023-01-16T02:59:45;99609.78;;;4.09;95.08
76352;BME280;65179;47.786;19.138;2023-01-16T03:02:13;99607.31;;;4.14;95.05
76352;BME280;65179;47.786;19.138;2023-01-16T03:05:05;99589.56;;;4.13;95.10
76352;BME280;65179;47.786;19.138;2023-01-16T03:26:45;99560.16;;;4.05;95.96
76352;BME280;65179;47.786;19.138;2023-01-16T03:34:53;99542.22;;;4.12;95.72
76352;BME280;65179;47.786;19.138;2023-01-16T03:37:32;99547.38;;;4.14;95.70
76352;BME280;65179;47.786;19.138;2023-01-16T03:40:03;99531.06;;;4.15;95.57
76352;BME280;65179;47.786;19.138;2023-01-16T03:42:36;99539.75;;;4.17;95.60
76352;BME280;65179;47.786;19.138;2023-01-16T03:45:26;99526.97;;;4.19;95.60
76352;BME280;65179;47.786;19.138;2023-01-16T03:48:02;99526.13;;;4.19;95.51
76352;BME280;65179;47.786;19.138;2023-01-16T03:50:30;99510.84;;;4.19;95.52
76352;BME280;65179;47.786;19.138;2023-01-16T03:53:01;99515.59;;;4.17;95.64
76352;BME280;65179;47.786;19.138;2023-01-16T03:58:06;99514.97;;;4.15;96.03
76352;BME280;65179;47.786;19.138;2023-01-16T04:03:16;99505.03;;;4.16;95.85
76352;BME280;65179;47.786;19.138;2023-01-16T04:05:55;99492.63;;;4.15;95.88
76352;BME280;65179;47.786;19.138;2023-01-16T04:08:26;99494.28;;;4.16;95.82
76352;BME280;65179;47.786;19.138;2023-01-16T04:10:57;99480.66;;;4.17;95.88
76352;BME280;65179;47.786;19.138;2023-01-16T04:13:27;99484.34;;;4.16;96.06
76352;BME280;65179;47.786;19.138;2023-01-16T04:15:56;99485.16;;;4.10;96.05
76352;BME280;65179;47.786;19.138;2023-01-16T04:18:28;99496.97;;;4.09;96.08
76352;BME280;65179;47.786;19.138;2023-01-16T04:20:55;99494.28;;;4.09;96.11
76352;BME280;65179;47.786;19.138;2023-01-16T04:23:21;99492.22;;;4.11;95.92
76352;BME280;65179;47.786;19.138;2023-01-16T04:25:46;99490.16;;;4.13;95.70
76352;BME280;65179;47.786;19.138;2023-01-16T04:28:12;99479.41;;;4.13;95.58
76352;BME280;65179;47.786;19.138;2023-01-16T04:30:37;99475.66;;;4.14;95.54
76352;BME280;65179;47.786;19.138;2023-01-16T04:33:04;99482.47;;;4.10;95.73
76352;BME280;65179;47.786;19.138;2023-01-16T04:35:30;99482.69;;;4.09;96.02
76352;BME280;65179;47.786;19.138;2023-01-16T04:37:55;99477.09;;;4.10;96.01
76352;BME280;65179;47.786;19.138;2023-01-16T04:40:21;99475.87;;;4.13;95.91
76352;BME280;65179;47.786;19.138;2023-01-16T04:42:47;99466.78;;;4.14;96.00
76352;BME280;65179;47.786;19.138;2023-01-16T04:45:13;99460.37;;;4.15;95.86
76352;BME280;65179;47.786;19.138;2023-01-16T04:47:38;99455.62;;;4.17;95.88
76352;BME280;65179;47.786;19.138;2023-01-16T04:50:04;99456.47;;;4.17;95.85
76352;BME280;65179;47.786;19.138;2023-01-16T04:52:30;99454.41;;;4.19;95.74
76352;BME280;65179;47.786;19.138;2023-01-16T04:54:55;99446.34;;;4.19;95.82
76352;BME280;65179;47.786;19.138;2023-01-16T04:57:20;99438.91;;;4.21;95.75
76352;BME280;65179;47.786;19.138;2023-01-16T04:59:46;99446.34;;;4.19;95.88
76352;BME280;65179;47.786;19.138;2023-01-16T05:02:11;99450.06;;;4.18;96.18
76352;BME280;65179;47.786;19.138;2023-01-16T05:04:37;99441.38;;;4.16;96.32
76352;BME280;65179;47.786;19.138;2023-01-16T05:07:02;99441.81;;;4.20;96.23
76352;BME280;65179;47.786;19.138;2023-01-16T05:09:28;99435.38;;;4.21;96.11
76352;BME280;65179;47.786;19.138;2023-01-16T05:11:53;99434.16;;;4.23;95.96
76352;BME280;65179;47.786;19.138;2023-01-16T05:14:19;99433.12;;;4.24;95.85
76352;BME280;65179;47.786;19.138;2023-01-16T05:16:44;99431.06;;;4.26;95.71
76352;BME280;65179;47.786;19.138;2023-01-16T05:19:10;99424.88;;;4.26;95.79
76352;BME280;65179;47.786;19.138;2023-01-16T05:21:35;99429.19;;;4.27;95.87
76352;BME280;65179;47.786;19.138;2023-01-16T05:24:01;99426.72;;;4.25;96.02
76352;BME280;65179;47.786;19.138;2023-01-16T05:26:27;99424.88;;;4.26;95.99
76352;BME280;65179;47.786;19.138;2023-01-16T05:28:52;99402.31;;;4.20;96.20
76352;BME280;65179;47.786;19.138;2023-01-16T05:31:18;99423.19;;;4.25;96.34
76352;BME280;65179;47.786;19.138;2023-01-16T05:33:43;99418.03;;;4.23;96.33
76352;BME280;65179;47.786;19.138;2023-01-16T05:36:09;99413.06;;;4.20;96.15
76352;BME280;65179;47.786;19.138;2023-01-16T05:38:34;99420.31;;;4.20;96.07
76352;BME280;65179;47.786;19.138;2023-01-16T05:41:00;99430.22;;;4.19;95.82
76352;BME280;65179;47.786;19.138;2023-01-16T05:43:25;99425.88;;;4.18;95.54
76352;BME280;65179;47.786;19.138;2023-01-16T05:45:51;99431.03;;;4.13;95.38
76352;BME280;65179;47.786;19.138;2023-01-16T05:48:17;99426.91;;;4.11;95.11
76352;BME280;65179;47.786;19.138;2023-01-16T05:50:42;99422.34;;;4.11;95.02
76352;BME280;65179;47.786;19.138;2023-01-16T05:53:08;99419.03;;;4.09;94.91
76352;BME280;65179;47.786;19.138;2023-01-16T05:55:43;99426.06;;;4.10;94.85
76352;BME280;65179;47.786;19.138;2023-01-16T05:58:13;99422.75;;;4.08;94.69
76352;BME280;65179;47.786;19.138;2023-01-16T06:00:39;99418.22;;;4.09;94.65
76352;BME280;65179;47.786;19.138;2023-01-16T06:03:06;99416.75;;;4.06;94.67
76352;BME280;65179;47.786;19.138;2023-01-16T06:05:32;99412.38;;;4.05;94.76
76352;BME280;65179;47.786;19.138;2023-01-16T06:07:57;99417.75;;;4.05;94.80
76352;BME280;65179;47.786;19.138;2023-01-16T06:10:23;99418.38;;;4.07;94.76
76352;BME280;65179;47.786;19.138;2023-01-16T06:12:49;99432.47;;;4.09;94.73
76352;BME280;65179;47.786;19.138;2023-01-16T06:15:15;99428.75;;;4.10;94.82
76352;BME280;65179;47.786;19.138;2023-01-16T06:17:40;99432.25;;;4.11;94.83
76352;BME280;65179;47.786;19.138;2023-01-16T06:20:06;99434.75;;;4.12;94.92
76352;BME280;65179;47.786;19.138;2023-01-16T06:22:32;99436.59;;;4.12;94.83
76352;BME280;65179;47.786;19.138;2023-01-16T06:24:58;99442.19;;;4.10;94.76
76352;BME280;65179;47.786;19.138;2023-01-16T06:27:23;99441.16;;;4.11;94.55
76352;BME280;65179;47.786;19.138;2023-01-16T06:29:49;99426.91;;;4.11;94.37
76352;BME280;65179;47.786;19.138;2023-01-16T06:32:14;99424.00;;;4.12;94.37
76352;BME280;65179;47.786;19.138;2023-01-16T06:34:42;99422.97;;;4.13;94.30
76352;BME280;65179;47.786;19.138;2023-01-16T06:37:07;99416.56;;;4.14;94.30
76352;BME280;65179;47.786;19.138;2023-01-16T06:39:33;99417.59;;;4.13;94.31
76352;BME280;65179;47.786;19.138;2023-01-16T06:41:58;99408.31;;;4.16;94.35
76352;BME280;65179;47.786;19.138;2023-01-16T06:44:24;99403.97;;;4.15;94.26
76352;BME280;65179;47.786;19.138;2023-01-16T06:46:49;99408.50;;;4.14;94.18
76352;BME280;65179;47.786;19.138;2023-01-16T06:49:14;99398.81;;;4.13;94.21
76352;BME280;65179;47.786;19.138;2023-01-16T06:51:40;99403.97;;;4.15;94.13
76352;BME280;65179;47.786;19.138;2023-01-16T06:54:08;99387.22;;;4.13;94.15
76352;BME280;65179;47.786;19.138;2023-01-16T06:56:34;99403.94;;;4.08;94.25
76352;BME280;65179;47.786;19.138;2023-01-16T06:58:59;99406.00;;;4.06;94.39
76352;BME280;65179;47.786;19.138;2023-01-16T07:01:25;99403.94;;;4.08;94.36
76352;BME280;65179;47.786;19.138;2023-01-16T07:03:50;99398.56;;;4.08;94.32
76352;BME280;65179;47.786;19.138;2023-01-16T07:06:16;99400.03;;;4.11;94.31
76352;BME280;65179;47.786;19.138;2023-01-16T07:08:41;99395.66;;;4.10;94.43
76352;BME280;65179;47.786;19.138;2023-01-16T07:11:08;99377.91;;;4.09;94.62
76352;BME280;65179;47.786;19.138;2023-01-16T07:13:34;99377.06;;;4.08;94.55
76352;BME280;65179;47.786;19.138;2023-01-16T07:15:59;99369.63;;;4.10;94.54
76352;BME280;65179;47.786;19.138;2023-01-16T07:18:44;99374.19;;;4.10;94.47
76352;BME280;65179;47.786;19.138;2023-01-16T07:21:32;99377.28;;;4.07;94.73
76352;BME280;65179;47.786;19.138;2023-01-16T07:24:22;99379.12;;;4.06;94.75
76352;BME280;65179;47.786;19.138;2023-01-16T07:26:53;99368.19;;;4.08;94.70
76352;BME280;65179;47.786;19.138;2023-01-16T07:29:23;99371.09;;;4.06;94.85
76352;BME280;65179;47.786;19.138;2023-01-16T07:31:49;99366.53;;;4.07;95.04
76352;BME280;65179;47.786;19.138;2023-01-16T07:34:14;99368.81;;;4.10;94.91
76352;BME280;65179;47.786;19.138;2023-01-16T07:36:40;99373.38;;;4.09;94.88
76352;BME280;65179;47.786;19.138;2023-01-16T07:39:08;99362.19;;;4.12;94.68
76352;BME280;65179;47.786;19.138;2023-01-16T07:41:33;99366.56;;;4.13;94.74
76352;BME280;65179;47.786;19.138;2023-01-16T07:43:58;99371.94;;;4.13;94.67
76352;BME280;65179;47.786;19.138;2023-01-16T07:46:24;99375.25;;;4.15;94.69
76352;BME280;65179;47.786;19.138;2023-01-16T07:48:50;99375.66;;;4.19;94.62
76352;BME280;65179;47.786;19.138;2023-01-16T07:51:16;99372.75;;;4.20;94.46
76352;BME280;65179;47.786;19.138;2023-01-16T07:53:45;99374.81;;;4.25;94.52
76352;BME280;65179;47.786;19.138;2023-01-16T07:56:11;99365.31;;;4.22;94.73
76352;BME280;65179;47.786;19.138;2023-01-16T07:58:42;99368.00;;;4.22;94.92
76352;BME280;65179;47.786;19.138;2023-01-16T08:01:09;99370.28;;;4.25;94.94
76352;BME280;65179;47.786;19.138;2023-01-16T08:03:35;99364.69;;;4.27;94.86
76352;BME280;65179;47.786;19.138;2023-01-16T08:06:04;99358.31;;;4.28;94.76
76352;BME280;65179;47.786;19.138;2023-01-16T08:08:31;99350.03;;;4.29;94.56
76352;BME280;65179;47.786;19.138;2023-01-16T08:11:00;99347.97;;;4.31;94.46
76352;BME280;65179;47.786;19.138;2023-01-16T08:13:48;99344.25;;;4.32;94.25
76352;BME280;65179;47.786;19.138;2023-01-16T08:16:14;99322.75;;;4.32;94.31
76352;BME280;65179;47.786;19.138;2023-01-16T08:18:39;99303.72;;;4.34;94.45
76352;BME280;65179;47.786;19.138;2023-01-16T08:21:05;99300.03;;;4.35;94.39
76352;BME280;65179;47.786;19.138;2023-01-16T08:23:30;99283.06;;;4.34;94.27
76352;BME280;65179;47.786;19.138;2023-01-16T08:25:56;99288.44;;;4.34;94.40
76352;BME280;65179;47.786;19.138;2023-01-16T08:28:25;99277.28;;;4.37;94.32
76352;BME280;65179;47.786;19.138;2023-01-16T08:30:51;99264.47;;;4.39;94.42
76352;BME280;65179;47.786;19.138;2023-01-16T08:33:16;99254.72;;;4.38;94.51
76352;BME280;65179;47.786;19.138;2023-01-16T08:35:42;99252.88;;;4.39;94.70
76352;BME280;65179;47.786;19.138;2023-01-16T08:38:08;99249.97;;;4.40;94.67
76352;BME280;65179;47.786;19.138;2023-01-16T08:40:34;99248.13;;;4.41;94.62
76352;BME280;65179;47.786;19.138;2023-01-16T08:42:59;99245.22;;;4.42;94.47
76352;BME280;65179;47.786;19.138;2023-01-16T08:45:43;99240.66;;;4.43;94.50
76352;BME280;65179;47.786;19.138;2023-01-16T08:48:27;99239.22;;;4.47;94.44
76352;BME280;65179;47.786;19.138;2023-01-16T08:51:15;99237.34;;;4.47;94.39
76352;BME280;65179;47.786;19.138;2023-01-16T08:53:48;99241.28;;;4.51;94.40
76352;BME280;65179;47.786;19.138;2023-01-16T08:56:14;99226.81;;;4.52;94.32
76352;BME280;65179;47.786;19.138;2023-01-16T08:58:39;99221.44;;;4.52;94.23
76352;BME280;65179;47.786;19.138;2023-01-16T09:01:05;99217.69;;;4.53;94.14
76352;BME280;65179;47.786;19.138;2023-01-16T09:03:30;99215.63;;;4.55;94.14
76352;BME280;65179;47.786;19.138;2023-01-16T09:05:56;99205.47;;;4.57;94.15
76352;BME280;65179;47.786;19.138;2023-01-16T09:08:22;99206.31;;;4.58;94.14
76352;BME280;65179;47.786;19.138;2023-01-16T09:10:51;99198.88;;;4.60;94.09
76352;BME280;65179;47.786;19.138;2023-01-16T09:13:35;99195.16;;;4.61;94.34
76352;BME280;65179;47.786;19.138;2023-01-16T09:16:21;99186.25;;;4.60;94.29
76352;BME280;65179;47.786;19.138;2023-01-16T09:18:47;99174.44;;;4.61;94.07
76352;BME280;65179;47.786;19.138;2023-01-16T09:21:14;99162.91;;;4.61;94.10
76352;BME280;65179;47.786;19.138;2023-01-16T09:23:40;99162.06;;;4.60;93.99
76352;BME280;65179;47.786;19.138;2023-01-16T09:26:09;99149.44;;;4.61;94.02
76352;BME280;65179;47.786;19.138;2023-01-16T09:28:37;99144.88;;;4.61;94.07
76352;BME280;65179;47.786;19.138;2023-01-16T09:31:03;99143.25;;;4.60;94.08
76352;BME280;65179;47.786;19.138;2023-01-16T09:33:29;99125.03;;;4.62;94.24
76352;BME280;65179;47.786;19.138;2023-01-16T09:35:55;99120.88;;;4.67;94.30
76352;BME280;65179;47.786;19.138;2023-01-16T09:38:20;99120.47;;;4.70;94.11
76352;BME280;65179;47.786;19.138;2023-01-16T09:40:47;99119.19;;;4.72;94.12
76352;BME280;65179;47.786;19.138;2023-01-16T09:43:43;99108.84;;;4.76;94.19
76352;BME280;65179;47.786;19.138;2023-01-16T09:46:18;99106.34;;;4.81;93.84
76352;BME280;65179;47.786;19.138;2023-01-16T09:51:32;99091.44;;;4.85;93.34
76352;BME280;65179;47.786;19.138;2023-01-16T09:53:59;99078.75;;;4.92;93.06
76352;BME280;65179;47.786;19.138;2023-01-16T09:56:48;99069.66;;;4.93;92.64
76352;BME280;65179;47.786;19.138;2023-01-16T09:59:49;99066.94;;;4.93;92.61
76352;BME280;65179;47.786;19.138;2023-01-16T10:02:36;99052.44;;;4.94;92.53
76352;BME280;65179;47.786;19.138;2023-01-16T10:05:04;99047.50;;;4.91;92.31
76352;BME280;65179;47.786;19.138;2023-01-16T10:13:56;99024.34;;;4.90;92.30
76352;BME280;65179;47.786;19.138;2023-01-16T10:22:36;99007.00;;;4.86;92.55
76352;BME280;65179;47.786;19.138;2023-01-16T10:30:37;98994.19;;;4.81;93.08
76352;BME280;65179;47.786;19.138;2023-01-16T10:35:55;98989.25;;;4.78;93.28
76352;BME280;65179;47.786;19.138;2023-01-16T10:38:34;98982.44;;;4.76;93.44
76352;BME280;65179;47.786;19.138;2023-01-16T10:41:23;98981.38;;;4.77;93.57
76352;BME280;65179;47.786;19.138;2023-01-16T10:44:24;98975.62;;;4.73;93.63
76352;BME280;65179;47.786;19.138;2023-01-16T10:47:11;98970.47;;;4.72;93.88
76352;BME280;65179;47.786;19.138;2023-01-16T10:49:56;98964.50;;;4.70;94.04
76352;BME280;65179;47.786;19.138;2023-01-16T10:52:22;98951.66;;;4.72;94.05
76352;BME280;65179;47.786;19.138;2023-01-16T10:54:51;98945.22;;;4.73;94.13
76352;BME280;65179;47.786;19.138;2023-01-16T10:57:19;98939.00;;;4.72;94.19
76352;BME280;65179;47.786;19.138;2023-01-16T10:59:46;98937.56;;;4.76;94.18
76352;BME280;65179;47.786;19.138;2023-01-16T11:02:32;98928.66;;;4.76;94.35
76352;BME280;65179;47.786;19.138;2023-01-16T11:05:02;98923.88;;;4.78;94.28
76352;BME280;65179;47.786;19.138;2023-01-16T11:07:44;98910.22;;;4.79;94.27
76352;BME280;65179;47.786;19.138;2023-01-16T11:10:14;98906.50;;;4.80;94.22
76352;BME280;65179;47.786;19.138;2023-01-16T11:12:40;98896.13;;;4.84;94.18
76352;BME280;65179;47.786;19.138;2023-01-16T11:15:27;98885.12;;;4.85;94.05
76352;BME280;65179;47.786;19.138;2023-01-16T11:18:29;98894.84;;;4.86;94.05
76352;BME280;65179;47.786;19.138;2023-01-16T11:21:02;98884.94;;;4.87;93.91
76352;BME280;65179;47.786;19.138;2023-01-16T11:23:42;98868.78;;;4.87;93.81
76352;BME280;65179;47.786;19.138;2023-01-16T11:26:09;98865.87;;;4.88;93.90
76352;BME280;65179;47.786;19.138;2023-01-16T11:28:37;98862.34;;;4.88;93.79
76352;BME280;65179;47.786;19.138;2023-01-16T11:31:24;98860.13;;;4.85;93.56
76352;BME280;65179;47.786;19.138;2023-01-16T11:33:54;98848.47;;;4.91;93.66
76352;BME280;65179;47.786;19.138;2023-01-16T11:36:25;98831.06;;;4.93;93.86
76352;BME280;65179;47.786;19.138;2023-01-16T11:38:53;98837.25;;;4.94;93.75
76352;BME280;65179;47.786;19.138;2023-01-16T11:41:23;98816.78;;;4.93;93.60
76352;BME280;65179;47.786;19.138;2023-01-16T11:47:06;98807.06;;;4.92;93.63
76352;BME280;65179;47.786;19.138;2023-01-16T11:49:40;98806.94;;;4.87;93.49
76352;BME280;65179;47.786;19.138;2023-01-16T11:52:19;98804.25;;;4.87;93.54
76352;BME280;65179;47.786;19.138;2023-01-16T11:55:03;98800.12;;;4.84;93.74
76352;BME280;65179;47.786;19.138;2023-01-16T11:57:48;98808.19;;;4.84;93.70
76352;BME280;65179;47.786;19.138;2023-01-16T12:03:22;98799.75;;;4.81;93.87
76352;BME280;65179;47.786;19.138;2023-01-16T12:11:15;98782.84;;;4.74;94.46
76352;BME280;65179;47.786;19.138;2023-01-16T12:19:52;98748.56;;;4.69;94.78
76352;BME280;65179;47.786;19.138;2023-01-16T12:25:27;98744.81;;;4.70;94.89
76352;BME280;65179;47.786;19.138;2023-01-16T12:28:10;98734.88;;;4.71;94.82
76352;BME280;65179;47.786;19.138;2023-01-16T12:33:51;98725.19;;;4.70;94.87
76352;BME280;65179;47.786;19.138;2023-01-16T12:36:53;98719.22;;;4.68;94.99
76352;BME280;65179;47.786;19.138;2023-01-16T12:42:46;98709.25;;;4.68;94.99
76352;BME280;65179;47.786;19.138;2023-01-16T12:45:47;98705.53;;;4.69;94.91
76352;BME280;65179;47.786;19.138;2023-01-16T12:50:47;98693.72;;;4.70;94.86
76352;BME280;65179;47.786;19.138;2023-01-16T12:53:27;98697.25;;;4.71;94.72
76352;BME280;65179;47.786;19.138;2023-01-16T12:56:13;98688.16;;;4.72;94.69
76352;BME280;65179;47.786;19.138;2023-01-16T12:58:45;98680.09;;;4.72;94.65
76352;BME280;65179;47.786;19.138;2023-01-16T13:06:36;98666.63;;;4.72;94.55
76352;BME280;65179;47.786;19.138;2023-01-16T13:09:11;98674.91;;;4.70;94.61
76352;BME280;65179;47.786;19.138;2023-01-16T13:12:37;98669.53;;;4.70;94.61
76352;BME280;65179;47.786;19.138;2023-01-16T13:15:00;98659.00;;;4.69;94.77
76352;BME280;65179;47.786;19.138;2023-01-16T13:17:42;98666.25;;;4.68;94.85
76352;BME280;65179;47.786;19.138;2023-01-16T13:20:15;98650.13;;;4.68;94.83
76352;BME280;65179;47.786;19.138;2023-01-16T13:23:08;98650.94;;;4.69;94.85
76352;BME280;65179;47.786;19.138;2023-01-16T13:25:44;98641.84;;;4.70;94.88
76352;BME280;65179;47.786;19.138;2023-01-16T13:30:41;98629.44;;;4.69;95.04
76352;BME280;65179;47.786;19.138;2023-01-16T13:33:13;98627.81;;;4.68;95.03
76352;BME280;65179;47.786;19.138;2023-01-16T13:36:08;98619.94;;;4.66;95.02
76352;BME280;65179;47.786;19.138;2023-01-16T13:41:30;98617.25;;;4.66;94.87
76352;BME280;65179;47.786;19.138;2023-01-16T13:44:18;98604.06;;;4.65;94.78
76352;BME280;65179;47.786;19.138;2023-01-16T13:47:08;98608.59;;;4.64;94.42
76352;BME280;65179;47.786;19.138;2023-01-16T13:49:41;98595.62;;;4.61;94.41
76352;BME280;65179;47.786;19.138;2023-01-16T13:52:25;98601.22;;;4.59;94.27
76352;BME280;65179;47.786;19.138;2023-01-16T13:55:01;98592.09;;;4.60;94.48
76352;BME280;65179;47.786;19.138;2023-01-16T13:57:32;98593.63;;;4.56;94.56
76352;BME280;65179;47.786;19.138;2023-01-16T14:00:09;98586.56;;;4.55;94.21
76352;BME280;65179;47.786;19.138;2023-01-16T14:11:22;98578.81;;;4.47;93.63
76352;BME280;65179;47.786;19.138;2023-01-16T14:13:49;98579.50;;;4.43;93.84
76352;BME280;65179;47.786;19.138;2023-01-16T14:16:39;98569.41;;;4.38;93.67
76352;BME280;65179;47.786;19.138;2023-01-16T14:19:23;98571.06;;;4.39;94.02
76352;BME280;65179;47.786;19.138;2023-01-16T14:21:49;98571.28;;;4.38;94.08
76352;BME280;65179;47.786;19.138;2023-01-16T14:24:45;98573.16;;;4.37;93.90
76352;BME280;65179;47.786;19.138;2023-01-16T14:27:15;98561.19;;;4.33;93.54
76352;BME280;65179;47.786;19.138;2023-01-16T14:29:47;98564.56;;;4.29;93.24
76352;BME280;65179;47.786;19.138;2023-01-16T14:32:15;98559.19;;;4.29;93.38
76352;BME280;65179;47.786;19.138;2023-01-16T14:35:01;98555.91;;;4.27;93.34
76352;BME280;65179;47.786;19.138;2023-01-16T14:37:38;98550.53;;;4.27;93.49
76352;BME280;65179;47.786;19.138;2023-01-16T14:42:36;98555.09;;;4.26;93.50
76352;BME280;65179;47.786;19.138;2023-01-16T14:45:31;98542.72;;;4.25;93.48
76352;BME280;65179;47.786;19.138;2023-01-16T14:48:36;98546.44;;;4.24;93.59
76352;BME280;65179;47.786;19.138;2023-01-16T14:51:33;98543.78;;;4.24;93.64
76352;BME280;65179;47.786;19.138;2023-01-16T14:54:30;98533.47;;;4.21;93.72
76352;BME280;65179;47.786;19.138;2023-01-16T14:57:20;98536.97;;;4.22;94.00
76352;BME280;65179;47.786;19.138;2023-01-16T15:00:05;98538.25;;;4.19;93.90
76352;BME280;65179;47.786;19.138;2023-01-16T15:03:00;98523.97;;;4.19;93.93
76352;BME280;65179;47.786;19.138;2023-01-16T15:05:46;98512.41;;;4.18;93.97
76352;BME280;65179;47.786;19.138;2023-01-16T15:08:34;98501.06;;;4.16;93.79
76352;BME280;65179;47.786;19.138;2023-01-16T15:11:30;98508.09;;;4.17;93.93
76352;BME280;65179;47.786;19.138;2023-01-16T15:22:53;98494.66;;;4.17;94.17
76352;BME280;65179;47.786;19.138;2023-01-16T15:25:33;98490.31;;;4.16;94.11
76352;BME280;65179;47.786;19.138;2023-01-16T15:28:12;98491.50;;;4.20;94.10
76352;BME280;65179;47.786;19.138;2023-01-16T15:30:42;98479.97;;;4.20;94.22
76352;BME280;65179;47.786;19.138;2023-01-16T15:33:23;98469.22;;;4.20;94.16
76352;BME280;65179;47.786;19.138;2023-01-16T15:41:43;98449.00;;;4.17;94.36
76352;BME280;65179;47.786;19.138;2023-01-16T15:44:30;98448.53;;;4.20;94.39
76352;BME280;65179;47.786;19.138;2023-01-16T15:47:33;98444.81;;;4.21;94.41